sensor_id;sensor_type;location;lat;lon;timestamp;pressure;altitude;pressure_sealevel;temperature;humidity
49315;BME280;36672;50.710;12.498;2023-03-05T00:00:33;98551.28;;;1.75;78.69
49315;BME280;36672;50.710;12.498;2023-03-05T00:02:59;98548.47;;;1.77;79.07
49315;BME280;36672;50.710;12.498;2023-03-05T00:05:24;98537.66;;;1.78;78.87
49315;BME280;36672;50.710;12.498;2023-03-05T00:07:49;98543.84;;;1.79;78.92
49315;BME280;36672;50.710;12.498;2023-03-05T00:10:14;98537.66;;;1.78;78.78
49315;BME280;36672;50.710;12.498;2023-03-05T00:12:40;98537.97;;;1.75;78.47
49315;BME280;36672;50.710;12.498;2023-03-05T00:15:05;98538.78;;;1.76;78.53
49315;BME280;36672;50.710;12.498;2023-03-05T00:17:30;98540.47;;;1.77;78.56
49315;BME280;36672;50.710;12.498;2023-03-05T00:19:56;98544.97;;;1.76;78.32
49315;BME280;36672;50.710;12.498;2023-03-05T00:22:22;98541.59;;;1.74;77.81
49315;BME280;36672;50.710;12.498;2023-03-05T00:24:49;98538.09;;;1.74;78.06
49315;BME280;36672;50.710;12.498;2023-03-05T00:27:14;98541.34;;;1.68;76.87
49315;BME280;36672;50.710;12.498;2023-03-05T00:29:39;98533.91;;;1.61;76.65
49315;BME280;36672;50.710;12.498;2023-03-05T00:32:04;98537.56;;;1.60;76.16
49315;BME280;36672;50.710;12.498;2023-03-05T00:34:30;98536.16;;;1.56;75.51
49315;BME280;36672;50.710;12.498;2023-03-05T00:36:55;98538.97;;;1.55;74.81
49315;BME280;36672;50.710;12.498;2023-03-05T00:39:21;98535.44;;;1.54;74.92
49315;BME280;36672;50.710;12.498;2023-03-05T00:41:46;98528.31;;;1.55;74.54
49315;BME280;36672;50.710;12.498;2023-03-05T00:44:11;98526.78;;;1.52;74.06
49315;BME280;36672;50.710;12.498;2023-03-05T00:46:37;98528.03;;;1.48;73.83
49315;BME280;36672;50.710;12.498;2023-03-05T00:49:02;98521.88;;;1.48;74.68
49315;BME280;36672;50.710;12.498;2023-03-05T00:51:27;98522.84;;;1.46;74.05
49315;BME280;36672;50.710;12.498;2023-03-05T00:53:53;98515.72;;;1.47;73.98
49315;BME280;36672;50.710;12.498;2023-03-05T00:56:18;98521.16;;;1.45;73.52
49315;BME280;36672;50.710;12.498;2023-03-05T00:58:44;98525.38;;;1.48;74.42
49315;BME280;36672;50.710;12.498;2023-03-05T01:01:09;98514.88;;;1.46;73.89
49315;BME280;36672;50.710;12.498;2023-03-05T01:03:34;98522.69;;;1.48;73.95
49315;BME280;36672;50.710;12.498;2023-03-05T01:06:00;98510.94;;;1.51;74.52
49315;BME280;36672;50.710;12.498;2023-03-05T01:08:26;98520.47;;;1.53;74.09
49315;BME280;36672;50.710;12.498;2023-03-05T01:10:51;98516.13;;;1.52;73.88
49315;BME280;36672;50.710;12.498;2023-03-05T01:13:16;98505.59;;;1.51;73.49
49315;BME280;36672;50.710;12.498;2023-03-05T01:15:42;98499.31;;;1.52;73.76
49315;BME280;36672;50.710;12.498;2023-03-05T01:18:07;98502.81;;;1.52;73.53
49315;BME280;36672;50.710;12.498;2023-03-05T01:20:32;98506.47;;;1.51;73.35
49315;BME280;36672;50.710;12.498;2023-03-05T01:22:58;98509.69;;;1.55;73.44
49315;BME280;36672;50.710;12.498;2023-03-05T01:25:23;98511.22;;;1.57;73.52
49315;BME280;36672;50.710;12.498;2023-03-05T01:27:49;98500.41;;;1.59;73.74
49315;BME280;36672;50.710;12.498;2023-03-05T01:30:14;98507.84;;;1.55;73.29
49315;BME280;36672;50.710;12.498;2023-03-05T01:32:39;98502.13;;;1.50;72.96
49315;BME280;36672;50.710;12.498;2023-03-05T01:35:05;98513.19;;;1.45;72.68
49315;BME280;36672;50.710;12.498;2023-03-05T01:37:31;98499.44;;;1.40;72.64
49315;BME280;36672;50.710;12.498;2023-03-05T01:39:56;98500.56;;;1.38;72.63
49315;BME280;36672;50.710;12.498;2023-03-05T01:42:21;98496.38;;;1.35;72.50
49315;BME280;36672;50.710;12.498;2023-03-05T01:45:04;98490.78;;;1.28;71.67
49315;BME280;36672;50.710;12.498;2023-03-05T01:47:30;98500.88;;;1.25;71.32
49315;BME280;36672;50.710;12.498;2023-03-05T01:49:55;98495.00;;;1.21;70.85
49315;BME280;36672;50.710;12.498;2023-03-05T01:52:21;98495.28;;;1.18;70.45
49315;BME280;36672;50.710;12.498;2023-03-05T01:54:55;98488.69;;;1.12;70.33
49315;BME280;36672;50.710;12.498;2023-03-05T01:57:24;98488.84;;;1.11;70.47
49315;BME280;36672;50.710;12.498;2023-03-05T01:59:52;98494.72;;;1.14;71.14
49315;BME280;36672;50.710;12.498;2023-03-05T02:02:19;98486.59;;;1.16;71.15
49315;BME280;36672;50.710;12.498;2023-03-05T02:04:49;98479.56;;;1.15;71.28
49315;BME280;36672;50.710;12.498;2023-03-05T02:07:16;98484.63;;;1.18;71.26
49315;BME280;36672;50.710;12.498;2023-03-05T02:09:42;98482.94;;;1.17;71.17
49315;BME280;36672;50.710;12.498;2023-03-05T02:12:08;98475.94;;;1.16;70.92
49315;BME280;36672;50.710;12.498;2023-03-05T02:14:34;98477.22;;;1.12;71.03
49315;BME280;36672;50.710;12.498;2023-03-05T02:16:59;98475.69;;;1.09;70.96
49315;BME280;36672;50.710;12.498;2023-03-05T02:19:25;98469.06;;;1.04;71.08
49315;BME280;36672;50.710;12.498;2023-03-05T02:21:50;98470.34;;;1.00;71.37
49315;BME280;36672;50.710;12.498;2023-03-05T02:24:31;98473.72;;;1.02;71.97
49315;BME280;36672;50.710;12.498;2023-03-05T02:26:57;98470.91;;;1.03;72.84
49315;BME280;36672;50.710;12.498;2023-03-05T02:29:23;98472.84;;;1.01;72.90
49315;BME280;36672;50.710;12.498;2023-03-05T02:31:48;98470.34;;;1.00;73.28
49315;BME280;36672;50.710;12.498;2023-03-05T02:34:13;98462.50;;;0.98;73.46
49315;BME280;36672;50.710;12.498;2023-03-05T02:36:39;98458.16;;;0.97;73.37
49315;BME280;36672;50.710;12.498;2023-03-05T02:39:04;98460.81;;;0.97;73.66
49315;BME280;36672;50.710;12.498;2023-03-05T02:41:30;98460.81;;;0.97;73.49
49315;BME280;36672;50.710;12.498;2023-03-05T02:43:55;98460.00;;;0.96;73.53
49315;BME280;36672;50.710;12.498;2023-03-05T02:46:20;98454.53;;;0.98;73.80
49315;BME280;36672;50.710;12.498;2023-03-05T02:48:45;98470.19;;;1.01;73.71
49315;BME280;36672;50.710;12.498;2023-03-05T02:51:11;98452.59;;;1.00;73.91
49315;BME280;36672;50.710;12.498;2023-03-05T02:53:36;98445.56;;;0.99;73.90
49315;BME280;36672;50.710;12.498;2023-03-05T02:56:01;98451.00;;;0.97;74.00
49315;BME280;36672;50.710;12.498;2023-03-05T02:58:27;98453.66;;;0.97;74.07
49315;BME280;36672;50.710;12.498;2023-03-05T03:00:52;98446.97;;;0.93;74.11
49315;BME280;36672;50.710;12.498;2023-03-05T03:03:17;98449.19;;;0.88;73.95
49315;BME280;36672;50.710;12.498;2023-03-05T03:05:43;98450.88;;;0.89;74.19
49315;BME280;36672;50.710;12.498;2023-03-05T03:08:08;98448.22;;;0.89;74.35
49315;BME280;36672;50.710;12.498;2023-03-05T03:10:34;98444.84;;;0.87;74.48
49315;BME280;36672;50.710;12.498;2023-03-05T03:12:59;98444.75;;;0.89;74.59
49315;BME280;36672;50.710;12.498;2023-03-05T03:15:25;98441.06;;;0.90;74.35
49315;BME280;36672;50.710;12.498;2023-03-05T03:17:50;98443.88;;;0.88;74.59
49315;BME280;36672;50.710;12.498;2023-03-05T03:20:16;98431.84;;;0.84;74.56
49315;BME280;36672;50.710;12.498;2023-03-05T03:22:42;98431.13;;;0.82;74.85
49315;BME280;36672;50.710;12.498;2023-03-05T03:25:08;98429.34;;;0.83;74.97
49315;BME280;36672;50.710;12.498;2023-03-05T03:27:35;98425.97;;;0.80;74.83
49315;BME280;36672;50.710;12.498;2023-03-05T03:30:00;98421.34;;;0.83;75.07
49315;BME280;36672;50.710;12.498;2023-03-05T03:32:28;98419.81;;;0.80;74.76
49315;BME280;36672;50.710;12.498;2023-03-05T03:34:54;98423.44;;;0.79;74.80
49315;BME280;36672;50.710;12.498;2023-03-05T03:37:19;98427.09;;;0.78;74.85
49315;BME280;36672;50.710;12.498;2023-03-05T03:39:44;98418.53;;;0.74;75.10
49315;BME280;36672;50.710;12.498;2023-03-05T03:42:09;98421.06;;;0.76;75.27
49315;BME280;36672;50.710;12.498;2023-03-05T03:44:35;98420.09;;;0.77;75.13
49315;BME280;36672;50.710;12.498;2023-03-05T03:47:00;98416.59;;;0.76;74.97
49315;BME280;36672;50.710;12.498;2023-03-05T03:49:25;98425.13;;;0.80;75.09
49315;BME280;36672;50.710;12.498;2023-03-05T03:51:51;98422.75;;;0.77;74.20
49315;BME280;36672;50.710;12.498;2023-03-05T03:54:18;98413.78;;;0.78;74.11
49315;BME280;36672;50.710;12.498;2023-03-05T03:56:43;98410.84;;;0.81;73.74
49315;BME280;36672;50.710;12.498;2023-03-05T03:59:09;98402.59;;;0.84;73.50
49315;BME280;36672;50.710;12.498;2023-03-05T04:01:34;98404.97;;;0.87;73.42
49315;BME280;36672;50.710;12.498;2023-03-05T04:03:59;98404.84;;;0.89;73.18
49315;BME280;36672;50.710;12.498;2023-03-05T04:06:25;98406.38;;;0.91;73.07
49315;BME280;36672;50.710;12.498;2023-03-05T04:08:50;98398.50;;;0.90;72.60
49315;BME280;36672;50.710;12.498;2023-03-05T04:11:15;98400.34;;;0.89;72.26
49315;BME280;36672;50.710;12.498;2023-03-05T04:13:43;98402.28;;;0.87;72.34
49315;BME280;36672;50.710;12.498;2023-03-05T04:16:08;98401.19;;;0.90;73.00
49315;BME280;36672;50.710;12.498;2023-03-05T04:18:33;98402.28;;;0.87;73.42
49315;BME280;36672;50.710;12.498;2023-03-05T04:20:59;98396.28;;;0.85;73.30
49315;BME280;36672;50.710;12.498;2023-03-05T04:23:24;98399.38;;;0.80;73.46
49315;BME280;36672;50.710;12.498;2023-03-05T04:25:49;98403.97;;;0.78;73.78
49315;BME280;36672;50.710;12.498;2023-03-05T04:28:14;98393.22;;;0.80;73.88
49315;BME280;36672;50.710;12.498;2023-03-05T04:30:39;98398.25;;;0.83;73.70
49315;BME280;36672;50.710;12.498;2023-03-05T04:33:05;98390.56;;;0.80;73.33
49315;BME280;36672;50.710;12.498;2023-03-05T04:35:30;98392.50;;;0.78;73.35
49315;BME280;36672;50.710;12.498;2023-03-05T04:37:56;98387.59;;;0.73;73.03
49315;BME280;36672;50.710;12.498;2023-03-05T04:40:21;98393.06;;;0.72;73.06
49315;BME280;36672;50.710;12.498;2023-03-05T04:42:46;98387.91;;;0.70;73.58
49315;BME280;36672;50.710;12.498;2023-03-05T04:45:11;98383.84;;;0.66;73.03
49315;BME280;36672;50.710;12.498;2023-03-05T04:47:36;98386.63;;;0.64;73.40
49315;BME280;36672;50.710;12.498;2023-03-05T04:50:02;98382.31;;;0.63;73.50
49315;BME280;36672;50.710;12.498;2023-03-05T04:52:28;98382.44;;;0.62;73.19
49315;BME280;36672;50.710;12.498;2023-03-05T04:54:53;98372.66;;;0.62;73.67
49315;BME280;36672;50.710;12.498;2023-03-05T04:57:19;98376.84;;;0.65;73.68
49315;BME280;36672;50.710;12.498;2023-03-05T04:59:44;98381.31;;;0.64;72.85
49315;BME280;36672;50.710;12.498;2023-03-05T05:02:09;98374.19;;;0.65;73.25
49315;BME280;36672;50.710;12.498;2023-03-05T05:04:34;98382.03;;;0.67;73.48
49315;BME280;36672;50.710;12.498;2023-03-05T05:07:00;98369.00;;;0.63;73.13
49315;BME280;36672;50.710;12.498;2023-03-05T05:09:25;98380.78;;;0.61;72.90
49315;BME280;36672;50.710;12.498;2023-03-05T05:11:50;98372.09;;;0.59;73.14
49315;BME280;36672;50.710;12.498;2023-03-05T05:14:16;98370.81;;;0.63;73.55
49315;BME280;36672;50.710;12.498;2023-03-05T05:16:41;98381.44;;;0.63;73.22
49315;BME280;36672;50.710;12.498;2023-03-05T05:19:06;98379.66;;;0.63;73.62
49315;BME280;36672;50.710;12.498;2023-03-05T05:21:32;98382.16;;;0.65;73.91
49315;BME280;36672;50.710;12.498;2023-03-05T05:23:57;98373.31;;;0.64;74.01
49315;BME280;36672;50.710;12.498;2023-03-05T05:26:23;98368.44;;;0.60;74.14
49315;BME280;36672;50.710;12.498;2023-03-05T05:28:48;98380.47;;;0.54;74.95
49315;BME280;36672;50.710;12.498;2023-03-05T05:31:14;98374.88;;;0.47;75.85
49315;BME280;36672;50.710;12.498;2023-03-05T05:33:40;98377.53;;;0.47;75.74
49315;BME280;36672;50.710;12.498;2023-03-05T05:36:07;98376.81;;;0.45;76.54
49315;BME280;36672;50.710;12.498;2023-03-05T05:38:33;98380.47;;;0.44;77.13
49315;BME280;36672;50.710;12.498;2023-03-05T05:41:02;98375.84;;;0.37;77.61
49315;BME280;36672;50.710;12.498;2023-03-05T05:43:27;98374.00;;;0.18;79.02
49315;BME280;36672;50.710;12.498;2023-03-05T05:45:52;98374.28;;;0.14;79.08
49315;BME280;36672;50.710;12.498;2023-03-05T05:48:18;98370.34;;;0.09;79.91
49315;BME280;36672;50.710;12.498;2023-03-05T05:50:43;98375.22;;;-0.06;80.35
49315;BME280;36672;50.710;12.498;2023-03-05T05:53:08;98377.31;;;-0.10;80.50
49315;BME280;36672;50.710;12.498;2023-03-05T05:55:33;98379.00;;;-0.09;81.11
49315;BME280;36672;50.710;12.498;2023-03-05T05:57:59;98375.06;;;-0.05;81.28
49315;BME280;36672;50.710;12.498;2023-03-05T06:00:24;98379.53;;;-0.05;81.27
49315;BME280;36672;50.710;12.498;2023-03-05T06:02:49;98376.63;;;-0.02;81.76
49315;BME280;36672;50.710;12.498;2023-03-05T06:05:14;98371.16;;;-0.01;81.66
49315;BME280;36672;50.710;12.498;2023-03-05T06:07:40;98369.38;;;0.00;82.00
49315;BME280;36672;50.710;12.498;2023-03-05T06:10:05;98365.47;;;0.04;82.36
49315;BME280;36672;50.710;12.498;2023-03-05T06:12:31;98374.09;;;0.06;82.12
49315;BME280;36672;50.710;12.498;2023-03-05T06:14:56;98366.72;;;0.10;82.50
49315;BME280;36672;50.710;12.498;2023-03-05T06:17:21;98369.38;;;0.10;82.54
49315;BME280;36672;50.710;12.498;2023-03-05T06:19:46;98367.56;;;0.10;82.54
49315;BME280;36672;50.710;12.498;2023-03-05T06:22:12;98368.81;;;0.16;82.97
49315;BME280;36672;50.710;12.498;2023-03-05T06:24:37;98366.03;;;0.18;82.90
49315;BME280;36672;50.710;12.498;2023-03-05T06:27:03;98372.06;;;0.20;82.89
49315;BME280;36672;50.710;12.498;2023-03-05T06:29:28;98363.78;;;0.23;82.95
49315;BME280;36672;50.710;12.498;2023-03-05T06:31:54;98357.34;;;0.25;82.98
49315;BME280;36672;50.710;12.498;2023-03-05T06:34:19;98361.56;;;0.28;82.98
49315;BME280;36672;50.710;12.498;2023-03-05T06:36:44;98366.47;;;0.32;82.96
49315;BME280;36672;50.710;12.498;2023-03-05T06:39:09;98358.34;;;0.34;82.85
49315;BME280;36672;50.710;12.498;2023-03-05T06:41:35;98358.91;;;0.38;83.11
49315;BME280;36672;50.710;12.498;2023-03-05T06:44:00;98358.22;;;0.36;82.92
49315;BME280;36672;50.710;12.498;2023-03-05T06:46:29;98365.09;;;0.38;82.57
49315;BME280;36672;50.710;12.498;2023-03-05T06:48:55;98361.44;;;0.39;82.61
49315;BME280;36672;50.710;12.498;2023-03-05T06:51:22;98357.78;;;0.40;82.55
49315;BME280;36672;50.710;12.498;2023-03-05T06:53:48;98359.47;;;0.41;81.80
49315;BME280;36672;50.710;12.498;2023-03-05T06:56:14;98353.19;;;0.42;81.55
49315;BME280;36672;50.710;12.498;2023-03-05T06:58:40;98334.03;;;0.48;81.62
49315;BME280;36672;50.710;12.498;2023-03-05T07:01:06;98329.28;;;0.52;80.72
49315;BME280;36672;50.710;12.498;2023-03-05T07:03:32;98329.25;;;0.62;80.61
49315;BME280;36672;50.710;12.498;2023-03-05T07:05:57;98335.69;;;0.89;80.76
49315;BME280;36672;50.710;12.498;2023-03-05T07:08:22;98332.94;;;1.18;80.46
49315;BME280;36672;50.710;12.498;2023-03-05T07:10:48;98333.53;;;1.50;79.67
49315;BME280;36672;50.710;12.498;2023-03-05T07:13:13;98339.75;;;1.68;77.92
49315;BME280;36672;50.710;12.498;2023-03-05T07:15:38;98339.56;;;1.79;77.79
49315;BME280;36672;50.710;12.498;2023-03-05T07:18:04;98331.94;;;1.85;77.02
49315;BME280;36672;50.710;12.498;2023-03-05T07:20:30;98323.84;;;1.86;75.50
49315;BME280;36672;50.710;12.498;2023-03-05T07:22:55;98329.56;;;1.91;75.80
49315;BME280;36672;50.710;12.498;2023-03-05T07:25:20;98330.00;;;1.87;75.26
49315;BME280;36672;50.710;12.498;2023-03-05T07:27:46;98323.53;;;1.89;74.83
49315;BME280;36672;50.710;12.498;2023-03-05T07:30:11;98323.91;;;1.94;75.13
49315;BME280;36672;50.710;12.498;2023-03-05T07:32:37;98324.84;;;2.03;73.99
49315;BME280;36672;50.710;12.498;2023-03-05T07:35:02;98320.75;;;2.27;74.47
49315;BME280;36672;50.710;12.498;2023-03-05T07:37:27;98328.91;;;2.61;73.67
49315;BME280;36672;50.710;12.498;2023-03-05T07:39:52;98322.88;;;2.77;72.13
49315;BME280;36672;50.710;12.498;2023-03-05T07:42:18;98317.22;;;2.81;69.42
49315;BME280;36672;50.710;12.498;2023-03-05T07:44:43;98320.34;;;2.76;69.14
49315;BME280;36672;50.710;12.498;2023-03-05T07:47:08;98311.75;;;2.64;67.49
49315;BME280;36672;50.710;12.498;2023-03-05T07:49:33;98313.50;;;2.55;67.81
49315;BME280;36672;50.710;12.498;2023-03-05T07:51:59;98314.66;;;2.53;68.86
49315;BME280;36672;50.710;12.498;2023-03-05T07:54:24;98310.00;;;2.55;67.40
49315;BME280;36672;50.710;12.498;2023-03-05T07:56:49;98306.03;;;2.59;67.82
49315;BME280;36672;50.710;12.498;2023-03-05T07:59:15;98306.22;;;2.84;68.44
49315;BME280;36672;50.710;12.498;2023-03-05T08:01:40;98298.72;;;3.05;67.70
49315;BME280;36672;50.710;12.498;2023-03-05T08:04:06;98303.97;;;2.97;65.44
49315;BME280;36672;50.710;12.498;2023-03-05T08:06:31;98300.75;;;2.85;64.26
49315;BME280;36672;50.710;12.498;2023-03-05T08:08:57;98296.69;;;2.81;64.87
49315;BME280;36672;50.710;12.498;2023-03-05T08:11:22;98296.06;;;2.87;65.03
49315;BME280;36672;50.710;12.498;2023-03-05T08:13:47;98296.34;;;3.02;64.30
49315;BME280;36672;50.710;12.498;2023-03-05T08:16:14;98291.53;;;3.32;64.53
49315;BME280;36672;50.710;12.498;2023-03-05T08:18:39;98287.03;;;3.84;64.05
49315;BME280;36672;50.710;12.498;2023-03-05T08:21:05;98291.59;;;4.00;61.11
49315;BME280;36672;50.710;12.498;2023-03-05T08:23:30;98291.72;;;3.90;60.85
49315;BME280;36672;50.710;12.498;2023-03-05T08:25:55;98284.13;;;3.61;58.91
49315;BME280;36672;50.710;12.498;2023-03-05T08:28:21;98284.25;;;3.51;59.75
49315;BME280;36672;50.710;12.498;2023-03-05T08:30:46;98288.31;;;3.63;61.47
49315;BME280;36672;50.710;12.498;2023-03-05T08:33:12;98276.03;;;3.87;61.72
49315;BME280;36672;50.710;12.498;2023-03-05T08:35:38;98283.22;;;3.95;60.36
49315;BME280;36672;50.710;12.498;2023-03-05T08:38:03;98287.06;;;3.92;58.08
49315;BME280;36672;50.710;12.498;2023-03-05T08:40:28;98278.41;;;3.98;58.46
49315;BME280;36672;50.710;12.498;2023-03-05T08:42:54;98273.53;;;3.94;59.03
49315;BME280;36672;50.710;12.498;2023-03-05T08:45:19;98276.34;;;3.84;59.08
49315;BME280;36672;50.710;12.498;2023-03-05T08:47:44;98270.63;;;3.70;59.54
49315;BME280;36672;50.710;12.498;2023-03-05T08:50:10;98267.97;;;3.79;61.04
49315;BME280;36672;50.710;12.498;2023-03-05T08:52:35;98263.97;;;3.74;60.50
49315;BME280;36672;50.710;12.498;2023-03-05T08:55:00;98270.50;;;3.80;61.29
49315;BME280;36672;50.710;12.498;2023-03-05T08:57:26;98272.84;;;3.83;60.46
49315;BME280;36672;50.710;12.498;2023-03-05T08:59:51;98266.03;;;3.89;58.86
49315;BME280;36672;50.710;12.498;2023-03-05T09:02:16;98267.84;;;3.88;59.21
49315;BME280;36672;50.710;12.498;2023-03-05T09:04:41;98269.53;;;3.98;60.11
49315;BME280;36672;50.710;12.498;2023-03-05T09:07:07;98277.06;;;3.94;59.66
49315;BME280;36672;50.710;12.498;2023-03-05T09:09:32;98267.06;;;4.04;59.32
49315;BME280;36672;50.710;12.498;2023-03-05T09:11:58;98262.56;;;4.13;58.60
49315;BME280;36672;50.710;12.498;2023-03-05T09:14:23;98266.22;;;4.20;59.98
49315;BME280;36672;50.710;12.498;2023-03-05T09:16:49;98257.75;;;4.50;58.73
49315;BME280;36672;50.710;12.498;2023-03-05T09:19:14;98259.06;;;4.70;58.43
49315;BME280;36672;50.710;12.498;2023-03-05T09:21:39;98255.22;;;4.56;57.75
49315;BME280;36672;50.710;12.498;2023-03-05T09:24:05;98262.38;;;4.23;58.25
49315;BME280;36672;50.710;12.498;2023-03-05T09:26:30;98255.38;;;4.22;58.80
49315;BME280;36672;50.710;12.498;2023-03-05T09:28:55;98252.38;;;4.25;59.42
49315;BME280;36672;50.710;12.498;2023-03-05T09:31:20;98253.69;;;4.13;59.55
49315;BME280;36672;50.710;12.498;2023-03-05T09:33:46;98253.34;;;4.07;59.96
49315;BME280;36672;50.710;12.498;2023-03-05T09:36:15;98254.50;;;3.97;60.68
49315;BME280;36672;50.710;12.498;2023-03-05T09:38:41;98252.66;;;3.97;60.80
49315;BME280;36672;50.710;12.498;2023-03-05T09:41:13;98242.47;;;4.01;60.39
49315;BME280;36672;50.710;12.498;2023-03-05T09:48:52;98231.97;;;3.99;59.11
49315;BME280;36672;50.710;12.498;2023-03-05T09:51:23;98227.25;;;4.01;60.52
49315;BME280;36672;50.710;12.498;2023-03-05T09:53:50;98236.13;;;3.85;61.42
49315;BME280;36672;50.710;12.498;2023-03-05T09:56:18;98235.56;;;3.65;62.43
49315;BME280;36672;50.710;12.498;2023-03-05T09:58:48;98235.34;;;3.50;62.58
49315;BME280;36672;50.710;12.498;2023-03-05T10:01:18;98233.19;;;3.62;64.25
49315;BME280;36672;50.710;12.498;2023-03-05T10:14:23;98224.25;;;3.37;62.61
49315;BME280;36672;50.710;12.498;2023-03-05T10:19:21;98219.59;;;3.31;61.90
49315;BME280;36672;50.710;12.498;2023-03-05T10:22:01;98222.09;;;3.32;62.96
49315;BME280;36672;50.710;12.498;2023-03-05T10:27:08;98213.13;;;3.07;62.71
49315;BME280;36672;50.710;12.498;2023-03-05T10:29:40;98219.66;;;3.13;64.93
49315;BME280;36672;50.710;12.498;2023-03-05T10:35:11;98205.22;;;2.89;65.81
49315;BME280;36672;50.710;12.498;2023-03-05T10:37:52;98211.91;;;2.93;66.68
49315;BME280;36672;50.710;12.498;2023-03-05T10:45:46;98201.94;;;2.51;69.67
49315;BME280;36672;50.710;12.498;2023-03-05T10:50:39;98188.41;;;2.70;67.09
49315;BME280;36672;50.710;12.498;2023-03-05T10:55:44;98173.00;;;3.25;64.38
49315;BME280;36672;50.710;12.498;2023-03-05T10:58:11;98167.56;;;3.51;64.28
49315;BME280;36672;50.710;12.498;2023-03-05T11:00:36;98160.94;;;3.80;62.27
49315;BME280;36672;50.710;12.498;2023-03-05T11:03:06;98157.44;;;4.04;61.73
49315;BME280;36672;50.710;12.498;2023-03-05T11:10:46;98155.13;;;5.62;56.95
49315;BME280;36672;50.710;12.498;2023-03-05T11:13:23;98155.63;;;5.88;57.86
49315;BME280;36672;50.710;12.498;2023-03-05T11:16:02;98138.13;;;6.01;56.17
49315;BME280;36672;50.710;12.498;2023-03-05T11:18:28;98138.88;;;5.86;55.21
49315;BME280;36672;50.710;12.498;2023-03-05T11:21:11;98130.59;;;5.73;55.69
49315;BME280;36672;50.710;12.498;2023-03-05T11:23:42;98134.34;;;5.01;55.81
49315;BME280;36672;50.710;12.498;2023-03-05T11:34:01;98122.63;;;4.54;59.64
49315;BME280;36672;50.710;12.498;2023-03-05T11:36:37;98125.25;;;4.62;58.19
49315;BME280;36672;50.710;12.498;2023-03-05T11:41:54;98122.81;;;4.28;58.51
49315;BME280;36672;50.710;12.498;2023-03-05T11:44:21;98112.81;;;4.21;59.23
49315;BME280;36672;50.710;12.498;2023-03-05T11:46:49;98114.97;;;4.26;58.85
49315;BME280;36672;50.710;12.498;2023-03-05T11:49:18;98114.47;;;4.31;57.91
49315;BME280;36672;50.710;12.498;2023-03-05T11:52:03;98105.06;;;4.43;57.13
49315;BME280;36672;50.710;12.498;2023-03-05T11:54:36;98099.56;;;4.45;56.51
49315;BME280;36672;50.710;12.498;2023-03-05T11:57:03;98098.91;;;4.43;55.69
49315;BME280;36672;50.710;12.498;2023-03-05T11:59:33;98094.22;;;4.45;56.67
49315;BME280;36672;50.710;12.498;2023-03-05T12:01:59;98088.84;;;4.61;57.41
49315;BME280;36672;50.710;12.498;2023-03-05T12:04:25;98083.13;;;4.64;56.07
49315;BME280;36672;50.710;12.498;2023-03-05T12:12:27;98077.22;;;5.17;56.09
49315;BME280;36672;50.710;12.498;2023-03-05T12:14:47;98069.31;;;5.15;54.80
49315;BME280;36672;50.710;12.498;2023-03-05T12:20:17;98065.59;;;4.93;54.84
49315;BME280;36672;50.710;12.498;2023-03-05T12:22:45;98058.47;;;4.77;53.67
49315;BME280;36672;50.710;12.498;2023-03-05T12:27:54;98054.19;;;4.60;55.42
49315;BME280;36672;50.710;12.498;2023-03-05T12:33:12;98050.81;;;4.26;56.59
49315;BME280;36672;50.710;12.498;2023-03-05T12:35:50;98053.34;;;4.19;56.84
49315;BME280;36672;50.710;12.498;2023-03-05T12:38:16;98044.81;;;4.07;58.00
49315;BME280;36672;50.710;12.498;2023-03-05T12:40:42;98044.84;;;3.99;58.89
49315;BME280;36672;50.710;12.498;2023-03-05T12:45:51;98040.66;;;4.05;58.72
49315;BME280;36672;50.710;12.498;2023-03-05T12:48:41;98045.78;;;4.23;57.94
49315;BME280;36672;50.710;12.498;2023-03-05T12:51:10;98030.03;;;4.36;58.55
49315;BME280;36672;50.710;12.498;2023-03-05T12:53:36;98032.69;;;4.45;58.03
49315;BME280;36672;50.710;12.498;2023-03-05T12:56:03;98029.16;;;4.52;57.49
49315;BME280;36672;50.710;12.498;2023-03-05T12:58:43;98021.28;;;4.51;57.03
49315;BME280;36672;50.710;12.498;2023-03-05T13:03:38;98025.41;;;4.22;57.73
49315;BME280;36672;50.710;12.498;2023-03-05T13:06:04;98027.13;;;3.98;60.93
49315;BME280;36672;50.710;12.498;2023-03-05T13:08:32;98018.50;;;3.71;63.31
49315;BME280;36672;50.710;12.498;2023-03-05T13:13:31;98018.16;;;3.66;64.32
49315;BME280;36672;50.710;12.498;2023-03-05T13:15:58;98030.84;;;3.64;64.89
49315;BME280;36672;50.710;12.498;2023-03-05T13:18:28;98017.00;;;3.52;65.76
49315;BME280;36672;50.710;12.498;2023-03-05T13:21:04;98025.84;;;3.45;66.90
49315;BME280;36672;50.710;12.498;2023-03-05T13:23:32;98020.81;;;3.41;67.18
49315;BME280;36672;50.710;12.498;2023-03-05T13:28:23;98024.50;;;3.32;65.77
49315;BME280;36672;50.710;12.498;2023-03-05T13:31:01;98022.31;;;3.19;65.90
49315;BME280;36672;50.710;12.498;2023-03-05T13:33:29;98018.16;;;3.17;67.00
49315;BME280;36672;50.710;12.498;2023-03-05T13:35:54;98019.47;;;3.04;65.87
49315;BME280;36672;50.710;12.498;2023-03-05T13:38:38;98023.94;;;3.04;67.88
49315;BME280;36672;50.710;12.498;2023-03-05T13:43:29;98015.44;;;3.08;66.98
49315;BME280;36672;50.710;12.498;2023-03-05T13:45:54;98014.28;;;3.11;66.17
49315;BME280;36672;50.710;12.498;2023-03-05T13:48:21;98006.44;;;3.09;65.39
49315;BME280;36672;50.710;12.498;2023-03-05T13:50:46;97999.78;;;3.22;65.64
49315;BME280;36672;50.710;12.498;2023-03-05T13:55:49;97994.94;;;3.34;64.24
49315;BME280;36672;50.710;12.498;2023-03-05T14:01:03;97994.94;;;3.25;64.63
49315;BME280;36672;50.710;12.498;2023-03-05T14:03:29;97993.94;;;3.26;64.74
49315;BME280;36672;50.710;12.498;2023-03-05T14:05:54;97992.44;;;3.24;65.03
49315;BME280;36672;50.710;12.498;2023-03-05T14:08:23;97993.44;;;3.23;65.97
49315;BME280;36672;50.710;12.498;2023-03-05T14:10:49;97996.63;;;3.18;66.36
49315;BME280;36672;50.710;12.498;2023-03-05T14:13:19;97992.75;;;3.13;66.75
49315;BME280;36672;50.710;12.498;2023-03-05T14:16:04;97990.78;;;3.15;66.86
49315;BME280;36672;50.710;12.498;2023-03-05T14:18:29;97990.25;;;3.11;67.41